Time;durP1;ratioP1;P1;durP2;ratioP2;P2;SDS_P1;SDS_P2;PMS_P1;PMS_P2;Temp;Humidity;BMP_temperature;BMP_pressure;BME280_temperature;BME280_humidity;BME280_pressure;Samples;Min_cycle;Max_cycle;Signal;HPM_P1;HPM_P2
2023/05/12 05:37:05;;;;;;;1999.90;999.90;;;;;;;;;;5067926;28;20449;-64
2023/05/12 05:39:31;;;;;;;1999.90;999.90;;;;;;;;;;5067557;28;20037;-73
2023/05/12 05:41:57;;;;;;;1999.90;999.90;;;;;;;;;;5066821;28;20032;-65
2023/05/12 05:44:24;;;;;;;1999.90;999.90;;;;;;;;;;5066810;28;20096;-69
2023/05/12 05:46:50;;;;;;;1999.90;999.90;;;;;;;;;;5066618;28;20376;-64
2023/05/12 05:49:16;;;;;;;1999.90;999.90;;;;;;;;;;5065735;28;20024;-66
2023/05/12 05:51:42;;;;;;;1999.90;999.90;;;;;;;;;;5066474;28;20464;-66
2023/05/12 05:54:08;;;;;;;1999.90;999.90;;;;;;;;;;5066660;28;20048;-65
2023/05/12 05:56:34;;;;;;;1999.90;999.90;;;;;;;;;;5066532;28;20044;-65
2023/05/12 05:59:03;;;;;;;1999.90;999.90;;;;;;;;;;5066560;28;20016;-65
2023/05/12 06:01:29;;;;;;;1999.90;999.90;;;;;;;;;;5066324;28;20575;-65
2023/05/12 06:03:55;;;;;;;1999.90;999.90;;;;;;;;;;5058916;28;20060;-66
2023/05/12 06:06:21;;;;;;;1999.90;999.90;;;;;;;;;;5066440;28;20443;-65
2023/05/12 06:08:47;;;;;;;1999.90;999.90;;;;;;;;;;5067656;28;20021;-66
2023/05/12 06:11:13;;;;;;;1999.90;999.90;;;;;;;;;;5067388;28;20091;-66
2023/05/12 06:13:39;;;;;;;1999.90;999.90;;;;;;;;;;5068284;28;20029;-66
2023/05/12 06:16:05;;;;;;;1999.90;999.90;;;;;;;;;;5067259;28;20428;-77
2023/05/12 06:18:36;;;;;;;1999.90;999.90;;;;;;;;;;5059916;28;20554;-70
2023/05/12 06:21:03;;;;;;;1999.90;999.90;;;;;;;;;;5056304;28;20028;-68
2023/05/12 06:23:29;;;;;;;1999.90;999.90;;;;;;;;;;5055011;28;20025;-69
2023/05/12 06:25:55;;;;;;;1999.90;999.90;;;;;;;;;;5054992;28;20074;-69
2023/05/12 06:28:21;;;;;;;1999.90;999.90;;;;;;;;;;5055391;28;20469;-69
2023/05/12 06:30:47;;;;;;;1999.90;999.90;;;;;;;;;;5054022;28;20033;-69
2023/05/12 06:33:13;;;;;;;1999.90;999.90;;;;;;;;;;5055934;28;20021;-72
2023/05/12 06:35:39;;;;;;;1999.90;999.90;;;;;;;;;;5054775;28;20065;-67
2023/05/12 06:38:05;;;;;;;1999.90;999.90;;;;;;;;;;5054398;28;20028;-67
2023/05/12 06:40:31;;;;;;;1999.90;999.90;;;;;;;;;;5056096;28;20021;-66
2023/05/12 06:42:57;;;;;;;1999.90;999.90;;;;;;;;;;5055459;28;20029;-67
2023/05/12 06:45:23;;;;;;;1999.90;999.90;;;;;;;;;;5054645;28;20023;-72
2023/05/12 06:47:49;;;;;;;1999.90;999.90;;;;;;;;;;5045390;28;20013;-66
2023/05/12 06:50:15;;;;;;;1999.90;999.90;;;;;;;;;;5043117;28;20056;-68
2023/05/12 06:52:42;;;;;;;1999.90;999.90;;;;;;;;;;5039964;28;20029;-69
2023/05/12 06:55:08;;;;;;;1999.90;999.90;;;;;;;;;;5039144;28;20042;-69
2023/05/12 06:57:34;;;;;;;1999.90;999.90;;;;;;;;;;5041387;28;20029;-79
2023/05/12 07:00:02;;;;;;;1999.90;999.90;;;;;;;;;;5043072;28;20036;-69
2023/05/12 07:02:28;;;;;;;1999.90;999.90;;;;;;;;;;5041541;28;20036;-74
2023/05/12 07:04:54;;;;;;;1999.90;999.90;;;;;;;;;;5041516;28;20029;-68
2023/05/12 07:07:20;;;;;;;1999.90;999.90;;;;;;;;;;5049174;28;20480;-67
2023/05/12 07:09:46;;;;;;;1999.90;999.90;;;;;;;;;;5046833;28;20043;-66
2023/05/12 07:12:12;;;;;;;1999.90;999.90;;;;;;;;;;5042757;28;20098;-67
2023/05/12 07:14:38;;;;;;;1999.90;999.90;;;;;;;;;;5038082;28;20040;-68
2023/05/12 07:17:05;;;;;;;1999.90;999.90;;;;;;;;;;5039811;28;20107;-65
2023/05/12 07:19:31;;;;;;;1999.90;999.90;;;;;;;;;;5041181;28;20473;-65
2023/05/12 07:21:57;;;;;;;1999.90;999.90;;;;;;;;;;5040470;28;20033;-68
2023/05/12 07:24:23;;;;;;;1999.90;999.90;;;;;;;;;;5042403;28;20514;-67
2023/05/12 07:26:49;;;;;;;1999.90;999.90;;;;;;;;;;5041133;28;20025;-67
2023/05/12 07:29:16;;;;;;;1999.90;999.90;;;;;;;;;;5042633;28;20029;-67
2023/05/12 07:31:42;;;;;;;1999.90;999.90;;;;;;;;;;5039331;28;20428;-67
2023/05/12 07:34:08;;;;;;;1999.90;999.90;;;;;;;;;;5039891;28;20751;-67
2023/05/12 07:36:34;;;;;;;1999.90;999.90;;;;;;;;;;5041317;28;20551;-67
2023/05/12 07:39:00;;;;;;;1999.90;999.90;;;;;;;;;;5042401;28;20117;-68
2023/05/12 07:41:26;;;;;;;1999.90;999.90;;;;;;;;;;5038552;28;20037;-67
2023/05/12 07:43:52;;;;;;;1999.90;999.90;;;;;;;;;;5040387;28;20037;-67
2023/05/12 07:46:18;;;;;;;1999.90;999.90;;;;;;;;;;5041628;28;20083;-68
2023/05/12 07:48:44;;;;;;;1999.90;999.90;;;;;;;;;;5054650;28;20024;-76
2023/05/12 07:51:10;;;;;;;1999.90;999.90;;;;;;;;;;5052499;28;20025;-66
2023/05/12 07:53:36;;;;;;;1999.90;999.90;;;;;;;;;;5052535;28;20039;-66
2023/05/12 07:56:03;;;;;;;1999.90;999.90;;;;;;;;;;5052226;28;20040;-66
2023/05/12 07:58:29;;;;;;;1999.90;999.90;;;;;;;;;;5051319;28;20021;-78
2023/05/12 08:31:58;;;;;;;1999.90;999.90;;;;;;;;;;5242105;23;20099;-77
2023/05/12 08:34:24;;;;;;;1999.90;999.90;;;;;;;;;;5051271;28;20025;-84
2023/05/12 08:36:54;;;;;;;1999.90;999.90;;;;;;;;;;5051630;28;20041;-82
2023/05/12 08:39:20;;;;;;;1999.90;999.90;;;;;;;;;;5051554;28;20104;-80
2023/05/12 08:42:08;;;;;;;1999.90;999.90;;;;;;;;;;5033470;28;20037;-82
2023/05/12 08:44:34;;;;;;;1999.90;999.90;;;;;;;;;;5051310;28;20021;-63
2023/05/12 08:47:01;;;;;;;1999.90;999.90;;;;;;;;;;5051688;28;20029;-64
2023/05/12 08:49:29;;;;;;;1999.90;999.90;;;;;;;;;;5050878;28;20057;-70
2023/05/12 08:51:56;;;;;;;1999.90;999.90;;;;;;;;;;5051907;28;20024;-82
2023/05/12 08:54:23;;;;;;;1999.90;999.90;;;;;;;;;;5032809;28;20481;-83
2023/05/12 08:56:51;;;;;;;1999.90;999.90;;;;;;;;;;5033030;28;20504;-64
2023/05/12 08:59:17;;;;;;;1999.90;999.90;;;;;;;;;;5050971;28;20029;-64
2023/05/12 09:01:46;;;;;;;1999.90;999.90;;;;;;;;;;5050929;28;20036;-64
2023/05/12 09:04:14;;;;;;;1999.90;999.90;;;;;;;;;;5050994;28;20021;-64
2023/05/12 09:06:40;;;;;;;1999.90;999.90;;;;;;;;;;5051080;28;20028;-64
2023/05/12 09:09:06;;;;;;;1999.90;999.90;;;;;;;;;;5051075;28;20029;-63
2023/05/12 09:11:32;;;;;;;1999.90;999.90;;;;;;;;;;5051015;28;20419;-63
2023/05/12 09:14:08;;;;;;;1999.90;999.90;;;;;;;;;;5050732;28;20079;-63
2023/05/12 09:16:39;;;;;;;1999.90;999.90;;;;;;;;;;5050760;28;20041;-63
2023/05/12 09:19:05;;;;;;;1999.90;999.90;;;;;;;;;;5051098;28;20329;-63
2023/05/12 09:21:32;;;;;;;1999.90;999.90;;;;;;;;;;5050953;28;20114;-74
2023/05/12 09:23:59;;;;;;;1999.90;999.90;;;;;;;;;;5050808;28;20090;-63
2023/05/12 09:26:27;;;;;;;1999.90;999.90;;;;;;;;;;5050806;28;20025;-63
2023/05/12 09:28:54;;;;;;;1999.90;999.90;;;;;;;;;;5050633;28;20056;-66
2023/05/12 09:31:21;;;;;;;1999.90;999.90;;;;;;;;;;5049973;28;20041;-62
2023/05/12 09:33:48;;;;;;;1999.90;999.90;;;;;;;;;;5050496;28;20021;-63
2023/05/12 09:36:18;;;;;;;1999.90;999.90;;;;;;;;;;5049380;28;20064;-63
2023/05/12 10:20:55;;;;;;;1999.90;999.90;;;;;;;;;;5655516;23;20104;-63
2023/05/12 10:23:22;;;;;;;1999.90;999.90;;;;;;;;;;4932037;29;20064;-78
2023/05/12 10:25:49;;;;;;;1999.90;999.90;;;;;;;;;;4936755;29;20028;-63
2023/05/12 15:51:19;;;;;;;1999.90;999.90;;;;;;;;;;4914571;29;20060;-67
2023/05/12 15:53:45;;;;;;;1999.90;999.90;;;;;;;;;;4916289;29;20111;-66
2023/05/12 15:56:11;;;;;;;1999.90;999.90;;;;;;;;;;4916114;29;20071;-66
2023/05/12 15:58:37;;;;;;;1999.90;999.90;;;;;;;;;;4916263;29;20153;-66
2023/05/12 16:01:03;;;;;;;1999.90;999.90;;;;;;;;;;4916049;29;20346;-66
2023/05/12 16:03:29;;;;;;;1999.90;999.90;;;;;;;;;;4916184;29;20032;-66
2023/05/12 16:05:55;;;;;;;1999.90;999.90;;;;;;;;;;4916242;29;20070;-79
2023/05/12 16:08:22;;;;;;;1999.90;999.90;;;;;;;;;;4915955;29;20020;-75
2023/05/12 16:10:48;;;;;;;1999.90;999.90;;;;;;;;;;4916226;29;20024;-70
2023/05/12 16:13:15;;;;;;;1999.90;999.90;;;;;;;;;;4916083;29;20377;-66
2023/05/12 16:15:41;;;;;;;1999.90;999.90;;;;;;;;;;4915920;29;20044;-79
2023/05/12 16:18:07;;;;;;;1999.90;999.90;;;;;;;;;;4916009;29;20027;-79
2023/05/12 16:20:33;;;;;;;1999.90;999.90;;;;;;;;;;4914852;29;20076;-68
2023/05/12 16:22:59;;;;;;;1999.90;999.90;;;;;;;;;;4915867;29;20032;-65
2023/05/12 16:25:25;;;;;;;1999.90;999.90;;;;;;;;;;4915557;29;20072;-66
2023/05/12 16:27:52;;;;;;;1999.90;999.90;;;;;;;;;;4915512;29;20028;-75
2023/05/12 16:30:18;;;;;;;1999.90;999.90;;;;;;;;;;4915509;29;20667;-76
2023/05/12 16:32:45;;;;;;;1999.90;999.90;;;;;;;;;;4914263;29;20071;-76
2023/05/12 16:35:11;;;;;;;1999.90;999.90;;;;;;;;;;4915363;29;20028;-67
2023/05/12 16:37:37;;;;;;;1999.90;999.90;;;;;;;;;;4915372;29;20039;-65
2023/05/12 16:40:04;;;;;;;1999.90;999.90;;;;;;;;;;4915296;29;20047;-66
2023/05/12 16:42:30;;;;;;;1999.90;999.90;;;;;;;;;;4914919;29;20128;-66
2023/05/12 16:44:56;;;;;;;1999.90;999.90;;;;;;;;;;4915409;29;20554;-67
2023/05/12 16:47:22;;;;;;;1999.90;999.90;;;;;;;;;;4914532;29;20111;-73
2023/05/12 16:49:52;;;;;;;1999.90;999.90;;;;;;;;;;4923331;29;20055;-67
2023/05/12 16:52:18;;;;;;;1999.90;999.90;;;;;;;;;;4953756;29;20031;-66
2023/05/12 16:54:44;;;;;;;1999.90;999.90;;;;;;;;;;4951846;29;20078;-65
2023/05/12 16:57:10;;;;;;;1999.90;999.90;;;;;;;;;;4953441;29;20035;-82
2023/05/12 16:59:38;;;;;;;1999.90;999.90;;;;;;;;;;4953092;29;20030;-68
2023/05/12 17:02:04;;;;;;;1999.90;999.90;;;;;;;;;;4952937;29;20031;-68
2023/05/12 17:04:30;;;;;;;1999.90;999.90;;;;;;;;;;4946434;29;20067;-79
2023/05/12 17:06:56;;;;;;;1999.90;999.90;;;;;;;;;;4942150;29;20031;-65
2023/05/12 17:09:23;;;;;;;1999.90;999.90;;;;;;;;;;4943270;29;20027;-65
2023/05/12 17:11:49;;;;;;;1999.90;999.90;;;;;;;;;;4941727;29;20054;-64
2023/05/12 17:14:15;;;;;;;1999.90;999.90;;;;;;;;;;4940963;29;20023;-64
2023/05/12 17:16:43;;;;;;;1999.90;999.90;;;;;;;;;;4942559;29;20050;-63
2023/05/12 17:19:10;;;;;;;1999.90;999.90;;;;;;;;;;4942577;29;20077;-77
2023/05/12 17:21:36;;;;;;;1999.90;999.90;;;;;;;;;;4940078;29;20039;-79
2023/05/12 17:24:02;;;;;;;1999.90;999.90;;;;;;;;;;4937378;29;20527;-73
2023/05/12 17:26:28;;;;;;;1999.90;999.90;;;;;;;;;;4931239;29;20415;-67
2023/05/12 17:28:55;;;;;;;1999.90;999.90;;;;;;;;;;4938656;29;20039;-67
2023/05/12 17:31:21;;;;;;;1999.90;999.90;;;;;;;;;;4942593;28;20080;-67
2023/05/12 17:33:47;;;;;;;1999.90;999.90;;;;;;;;;;4944660;29;20464;-66
2023/05/12 17:36:13;;;;;;;1999.90;999.90;;;;;;;;;;4950907;29;20467;-65
2023/05/12 17:38:39;;;;;;;1999.90;999.90;;;;;;;;;;4937848;29;20099;-67
2023/05/12 17:41:05;;;;;;;1999.90;999.90;;;;;;;;;;4939765;29;20027;-75
2023/05/12 17:43:31;;;;;;;1999.90;999.90;;;;;;;;;;4944466;29;20062;-84
2023/05/12 17:45:57;;;;;;;1999.90;999.90;;;;;;;;;;4943571;29;20035;-67
2023/05/12 17:48:25;;;;;;;1999.90;999.90;;;;;;;;;;4939791;29;20059;-67
2023/05/12 17:50:52;;;;;;;1999.90;999.90;;;;;;;;;;4940987;29;20039;-67
2023/05/12 17:53:18;;;;;;;1999.90;999.90;;;;;;;;;;4943458;29;20035;-67
2023/05/12 17:55:44;;;;;;;1999.90;999.90;;;;;;;;;;4943803;29;20027;-66
2023/05/12 17:58:10;;;;;;;1999.90;999.90;;;;;;;;;;4938341;29;20101;-66
2023/05/12 18:00:36;;;;;;;1999.90;999.90;;;;;;;;;;4937796;29;20073;-69
2023/05/12 18:03:02;;;;;;;1999.90;999.90;;;;;;;;;;4937855;29;20039;-64
2023/05/12 18:05:28;;;;;;;1999.90;999.90;;;;;;;;;;4939216;29;20518;-71
2023/05/12 18:07:55;;;;;;;1999.90;999.90;;;;;;;;;;4942000;28;20059;-67
2023/05/12 18:10:21;;;;;;;1999.90;999.90;;;;;;;;;;4938894;29;20087;-66
2023/05/12 18:12:47;;;;;;;1999.90;999.90;;;;;;;;;;4941167;29;20024;-65
2023/05/12 18:15:15;;;;;;;1999.90;999.90;;;;;;;;;;4942529;29;20038;-66
2023/05/12 18:17:41;;;;;;;1999.90;999.90;;;;;;;;;;4941286;29;20032;-80
2023/05/12 18:20:08;;;;;;;1999.90;999.90;;;;;;;;;;4940931;29;20034;-65
2023/05/12 18:22:34;;;;;;;1999.90;999.90;;;;;;;;;;4942596;29;20039;-65
2023/05/12 18:25:00;;;;;;;1999.90;999.90;;;;;;;;;;4949212;29;20023;-67
2023/05/12 18:27:26;;;;;;;1999.90;999.90;;;;;;;;;;4935338;29;20024;-85
2023/05/12 18:29:52;;;;;;;1999.90;999.90;;;;;;;;;;4939986;29;20043;-70
2023/05/12 18:32:18;;;;;;;1999.90;999.90;;;;;;;;;;4941160;29;20016;-65
2023/05/12 18:34:45;;;;;;;1999.90;999.90;;;;;;;;;;4937385;29;20094;-68
2023/05/12 18:37:14;;;;;;;1999.90;999.90;;;;;;;;;;4935443;29;20129;-84
2023/05/12 18:39:40;;;;;;;1999.90;999.90;;;;;;;;;;4940235;29;20098;-65
2023/05/12 18:42:06;;;;;;;1999.90;999.90;;;;;;;;;;4940220;29;20047;-61
2023/05/12 18:44:32;;;;;;;1999.90;999.90;;;;;;;;;;4944805;29;20039;-66
2023/05/12 18:46:58;;;;;;;1999.90;999.90;;;;;;;;;;4945194;29;20026;-73
2023/05/12 18:49:24;;;;;;;1999.90;999.90;;;;;;;;;;4943408;28;20743;-65
2023/05/12 18:51:50;;;;;;;1999.90;999.90;;;;;;;;;;4945512;29;20031;-71
2023/05/12 18:54:16;;;;;;;1999.90;999.90;;;;;;;;;;4944541;29;20031;-72
2023/05/12 18:56:42;;;;;;;1999.90;999.90;;;;;;;;;;4943817;29;20031;-67
2023/05/12 18:59:08;;;;;;;1999.90;999.90;;;;;;;;;;4938600;29;20027;-68
2023/05/12 19:01:35;;;;;;;1999.90;999.90;;;;;;;;;;4944346;29;20183;-73
2023/05/12 19:04:01;;;;;;;1999.90;999.90;;;;;;;;;;4943696;29;20023;-68
2023/05/12 19:06:27;;;;;;;1999.90;999.90;;;;;;;;;;4945364;29;20467;-64
2023/05/12 19:08:53;;;;;;;1999.90;999.90;;;;;;;;;;4943138;29;20027;-68
2023/05/12 19:11:19;;;;;;;1999.90;999.90;;;;;;;;;;4944676;29;20487;-69
2023/05/12 19:13:48;;;;;;;1999.90;999.90;;;;;;;;;;4944456;29;20039;-68
2023/05/12 19:16:14;;;;;;;1999.90;999.90;;;;;;;;;;4940886;29;20035;-69
2023/05/12 19:18:40;;;;;;;1999.90;999.90;;;;;;;;;;4945590;29;20122;-67
2023/05/12 19:21:06;;;;;;;1999.90;999.90;;;;;;;;;;4954750;29;20491;-68
2023/05/12 19:23:32;;;;;;;1999.90;999.90;;;;;;;;;;4954947;29;20409;-68
2023/05/12 19:25:58;;;;;;;1999.90;999.90;;;;;;;;;;4954966;29;20031;-69
2023/05/12 19:28:24;;;;;;;1999.90;999.90;;;;;;;;;;4953706;29;20035;-72
2023/05/12 19:30:50;;;;;;;1999.90;999.90;;;;;;;;;;4954771;29;20062;-69
2023/05/12 19:33:16;;;;;;;1999.90;999.90;;;;;;;;;;4954872;29;20394;-70
2023/05/12 19:35:42;;;;;;;1999.90;999.90;;;;;;;;;;4954219;29;20110;-75
2023/05/12 19:38:08;;;;;;;1999.90;999.90;;;;;;;;;;4943216;29;20020;-69
2023/05/12 19:40:34;;;;;;;1999.90;999.90;;;;;;;;;;4943831;29;20072;-73
2023/05/12 19:43:00;;;;;;;1999.90;999.90;;;;;;;;;;4940331;29;20039;-78
2023/05/12 19:45:28;;;;;;;1999.90;999.90;;;;;;;;;;4935377;29;20075;-69
2023/05/12 19:47:55;;;;;;;1999.90;999.90;;;;;;;;;;4934261;29;20050;-79
2023/05/12 19:50:21;;;;;;;1999.90;999.90;;;;;;;;;;4934916;29;20043;-70
2023/05/12 19:52:47;;;;;;;1999.90;999.90;;;;;;;;;;4935960;28;20123;-75
2023/05/12 19:55:13;;;;;;;1999.90;999.90;;;;;;;;;;4953935;28;20031;-71
2023/05/12 19:57:39;;;;;;;1999.90;999.90;;;;;;;;;;4954143;29;20039;-76
2023/05/12 20:00:06;;;;;;;1999.90;999.90;;;;;;;;;;4954332;29;20062;-67
2023/05/12 20:02:32;;;;;;;1999.90;999.90;;;;;;;;;;4954429;29;20487;-68
2023/05/12 20:04:59;;;;;;;1999.90;999.90;;;;;;;;;;4953775;29;20034;-69
2023/05/12 20:07:25;;;;;;;1999.90;999.90;;;;;;;;;;4954506;29;20115;-69
2023/05/12 20:09:51;;;;;;;1999.90;999.90;;;;;;;;;;4953634;29;20062;-68
2023/05/12 20:12:17;;;;;;;1999.90;999.90;;;;;;;;;;4953660;29;20059;-69
2023/05/12 20:14:43;;;;;;;1999.90;999.90;;;;;;;;;;4953718;29;20027;-68
2023/05/12 20:17:11;;;;;;;1999.90;999.90;;;;;;;;;;4962490;28;20035;-71
2023/05/12 20:19:37;;;;;;;1999.90;999.90;;;;;;;;;;4972837;28;20030;-73
2023/05/12 20:22:03;;;;;;;1999.90;999.90;;;;;;;;;;4973121;28;20048;-71
2023/05/12 20:24:29;;;;;;;1999.90;999.90;;;;;;;;;;4955901;28;20019;-71
2023/05/12 20:26:55;;;;;;;1999.90;999.90;;;;;;;;;;4953147;29;20055;-72
2023/05/12 20:29:21;;;;;;;1999.90;999.90;;;;;;;;;;4953089;29;20107;-72
2023/05/12 20:31:50;;;;;;;1999.90;999.90;;;;;;;;;;4953217;29;20475;-72
2023/05/12 20:34:17;;;;;;;1999.90;999.90;;;;;;;;;;4953129;29;20098;-72
2023/05/12 20:36:43;;;;;;;1999.90;999.90;;;;;;;;;;4953378;29;20047;-71
2023/05/12 20:39:10;;;;;;;1999.90;999.90;;;;;;;;;;4953478;29;20090;-71
2023/05/12 20:41:36;;;;;;;1999.90;999.90;;;;;;;;;;4953078;29;20512;-71
2023/05/12 20:44:02;;;;;;;1999.90;999.90;;;;;;;;;;4953612;29;20455;-72
2023/05/12 20:46:29;;;;;;;1999.90;999.90;;;;;;;;;;4953426;29;20102;-71
2023/05/12 20:48:56;;;;;;;1999.90;999.90;;;;;;;;;;4952954;29;20025;-72
2023/05/12 20:51:22;;;;;;;1999.90;999.90;;;;;;;;;;4953065;29;20049;-71
2023/05/12 20:53:48;;;;;;;1999.90;999.90;;;;;;;;;;4953412;29;20061;-71
2023/05/12 20:56:14;;;;;;;1999.90;999.90;;;;;;;;;;4952385;28;20151;-71
2023/05/12 20:58:41;;;;;;;1999.90;999.90;;;;;;;;;;4943666;29;20476;-71
2023/05/12 21:01:07;;;;;;;1999.90;999.90;;;;;;;;;;4941686;29;20031;-74
2023/05/12 21:03:33;;;;;;;1999.90;999.90;;;;;;;;;;4942012;29;20030;-68
2023/05/12 21:05:59;;;;;;;1999.90;999.90;;;;;;;;;;4939964;29;20431;-70
2023/05/12 21:08:25;;;;;;;1999.90;999.90;;;;;;;;;;4941938;29;20058;-71
2023/05/12 21:10:52;;;;;;;1999.90;999.90;;;;;;;;;;4943074;29;20456;-70
2023/05/12 21:13:18;;;;;;;1999.90;999.90;;;;;;;;;;4941738;29;20618;-68
2023/05/12 21:15:44;;;;;;;1999.90;999.90;;;;;;;;;;4941714;29;20039;-70
2023/05/12 21:18:12;;;;;;;1999.90;999.90;;;;;;;;;;4943127;29;20058;-70
2023/05/12 21:20:38;;;;;;;1999.90;999.90;;;;;;;;;;4941427;29;20114;-70
2023/05/12 21:23:08;;;;;;;1999.90;999.90;;;;;;;;;;4941814;29;20039;-69
2023/05/12 21:25:34;;;;;;;1999.90;999.90;;;;;;;;;;4943308;28;20027;-70
2023/05/12 21:28:00;;;;;;;1999.90;999.90;;;;;;;;;;4941740;29;20032;-69
2023/05/12 21:30:26;;;;;;;1999.90;999.90;;;;;;;;;;4941198;29;20424;-70
2023/05/12 21:32:52;;;;;;;1999.90;999.90;;;;;;;;;;4934717;28;20024;-71
2023/05/12 21:35:18;;;;;;;1999.90;999.90;;;;;;;;;;4934280;29;20365;-70
2023/05/12 21:37:45;;;;;;;1999.90;999.90;;;;;;;;;;4942316;29;20499;-68
2023/05/12 21:40:11;;;;;;;1999.90;999.90;;;;;;;;;;4943514;29;20019;-68
2023/05/12 21:42:37;;;;;;;1999.90;999.90;;;;;;;;;;4941051;29;20842;-69
2023/05/12 21:45:03;;;;;;;1999.90;999.90;;;;;;;;;;4942660;29;20502;-68
2023/05/12 21:47:29;;;;;;;1999.90;999.90;;;;;;;;;;4941306;29;20106;-67
2023/05/12 21:49:55;;;;;;;1999.90;999.90;;;;;;;;;;4940868;29;20055;-69
2023/05/12 21:52:22;;;;;;;1999.90;999.90;;;;;;;;;;4940864;29;20028;-69
2023/05/12 21:54:48;;;;;;;1999.90;999.90;;;;;;;;;;4943677;29;20031;-69
2023/05/12 21:57:14;;;;;;;1999.90;999.90;;;;;;;;;;4943071;29;20043;-68
2023/05/12 21:59:40;;;;;;;1999.90;999.90;;;;;;;;;;4942961;29;20024;-69
2023/05/12 22:02:06;;;;;;;1999.90;999.90;;;;;;;;;;4941511;29;20023;-69
2023/05/12 22:04:33;;;;;;;1999.90;999.90;;;;;;;;;;4941366;29;20037;-70
2023/05/12 22:06:59;;;;;;;1999.90;999.90;;;;;;;;;;4941092;29;20031;-70
2023/05/12 22:09:25;;;;;;;1999.90;999.90;;;;;;;;;;4942188;29;20522;-70
2023/05/12 22:11:51;;;;;;;1999.90;999.90;;;;;;;;;;4942723;29;20039;-69
2023/05/12 22:14:17;;;;;;;1999.90;999.90;;;;;;;;;;4949674;29;20391;-69
2023/05/12 22:16:44;;;;;;;1999.90;999.90;;;;;;;;;;4952687;28;20047;-69
2023/05/12 22:19:10;;;;;;;1999.90;999.90;;;;;;;;;;4955136;29;20057;-70
2023/05/12 22:21:36;;;;;;;1999.90;999.90;;;;;;;;;;4955965;29;20035;-69
2023/05/12 22:24:02;;;;;;;1999.90;999.90;;;;;;;;;;4956277;29;20034;-70
2023/05/12 22:26:28;;;;;;;1999.90;999.90;;;;;;;;;;4955939;29;20039;-70
2023/05/12 22:28:54;;;;;;;1999.90;999.90;;;;;;;;;;4956373;29;20031;-70
2023/05/12 22:31:20;;;;;;;1999.90;999.90;;;;;;;;;;4955975;29;20066;-69
2023/05/12 22:33:47;;;;;;;1999.90;999.90;;;;;;;;;;4956020;29;20154;-71
2023/05/12 22:36:13;;;;;;;1999.90;999.90;;;;;;;;;;4955899;29;20047;-70
2023/05/12 22:38:39;;;;;;;1999.90;999.90;;;;;;;;;;4955745;29;20031;-70
2023/05/12 22:41:05;;;;;;;1999.90;999.90;;;;;;;;;;4955712;29;20035;-70
2023/05/12 22:43:31;;;;;;;1999.90;999.90;;;;;;;;;;4956038;29;20054;-68
2023/05/12 22:45:57;;;;;;;1999.90;999.90;;;;;;;;;;4955575;29;20439;-71
2023/05/12 22:48:23;;;;;;;1999.90;999.90;;;;;;;;;;4955654;29;20035;-71
2023/05/12 22:50:53;;;;;;;1999.90;999.90;;;;;;;;;;4955269;29;20154;-71
2023/05/12 22:53:19;;;;;;;1999.90;999.90;;;;;;;;;;4955093;29;20043;-71
2023/05/12 22:55:45;;;;;;;1999.90;999.90;;;;;;;;;;4955566;29;20035;-70
2023/05/12 22:58:12;;;;;;;1999.90;999.90;;;;;;;;;;4955302;29;20035;-70
2023/05/12 23:00:38;;;;;;;1999.90;999.90;;;;;;;;;;4955596;29;20106;-70
2023/05/12 23:03:06;;;;;;;1999.90;999.90;;;;;;;;;;4955124;29;20031;-70
2023/05/12 23:05:32;;;;;;;1999.90;999.90;;;;;;;;;;4955157;29;20106;-70
2023/05/12 23:07:58;;;;;;;1999.90;999.90;;;;;;;;;;4955259;29;20483;-70
2023/05/12 23:10:24;;;;;;;1999.90;999.90;;;;;;;;;;4955194;29;20035;-71
2023/05/12 23:12:50;;;;;;;1999.90;999.90;;;;;;;;;;4955158;29;20027;-71
2023/05/12 23:15:16;;;;;;;1999.90;999.90;;;;;;;;;;4955206;29;20503;-71
2023/05/12 23:17:42;;;;;;;1999.90;999.90;;;;;;;;;;4955408;29;20038;-70
2023/05/12 23:20:08;;;;;;;1999.90;999.90;;;;;;;;;;4954910;29;20038;-69
2023/05/12 23:22:34;;;;;;;1999.90;999.90;;;;;;;;;;4955232;29;20031;-70
2023/05/12 23:25:00;;;;;;;1999.90;999.90;;;;;;;;;;4955183;29;20031;-70
2023/05/12 23:27:26;;;;;;;1999.90;999.90;;;;;;;;;;4955039;29;20432;-70
2023/05/12 23:29:53;;;;;;;1999.90;999.90;;;;;;;;;;4954864;28;20042;-70
2023/05/12 23:32:19;;;;;;;1999.90;999.90;;;;;;;;;;4955315;29;20064;-69
2023/05/12 23:34:45;;;;;;;1999.90;999.90;;;;;;;;;;4954929;29;20039;-70
2023/05/12 23:37:11;;;;;;;1999.90;999.90;;;;;;;;;;4954785;29;20039;-69
2023/05/12 23:39:37;;;;;;;1999.90;999.90;;;;;;;;;;4954852;29;20398;-69
2023/05/12 23:42:03;;;;;;;1999.90;999.90;;;;;;;;;;4954744;29;20449;-72
2023/05/12 23:44:29;;;;;;;1999.90;999.90;;;;;;;;;;4954688;29;20110;-69
2023/05/12 23:46:55;;;;;;;1999.90;999.90;;;;;;;;;;4954804;29;20027;-71
2023/05/12 23:49:21;;;;;;;1999.90;999.90;;;;;;;;;;4954351;29;20690;-71
2023/05/12 23:51:47;;;;;;;1999.90;999.90;;;;;;;;;;4954574;29;20538;-70
2023/05/12 23:54:13;;;;;;;1999.90;999.90;;;;;;;;;;4954676;29;20139;-69
2023/05/12 23:56:39;;;;;;;1999.90;999.90;;;;;;;;;;4954664;29;20166;-69
2023/05/12 23:59:05;;;;;;;1999.90;999.90;;;;;;;;;;4954246;29;20027;-69
